createdAt,value
2023-01-19T00:02:15.753Z,100.00
2023-01-19T00:04:42.058Z,100.00
2023-01-19T00:07:08.410Z,100.00
2023-01-19T00:09:34.740Z,100.00
2023-01-19T00:12:01.069Z,100.00
2023-01-19T00:14:27.438Z,100.00
2023-01-19T00:16:53.773Z,100.00
2023-01-19T00:19:20.202Z,100.00
2023-01-19T00:21:46.527Z,100.00
2023-01-19T00:24:12.957Z,100.00
2023-01-19T00:26:39.495Z,100.00
2023-01-19T00:29:12.542Z,100.00
2023-01-19T00:31:39.158Z,100.00
2023-01-19T00:34:06.586Z,100.00
2023-01-19T00:36:33.427Z,100.00
2023-01-19T00:39:00.026Z,100.00
2023-01-19T00:41:26.531Z,100.00
2023-01-19T00:43:52.851Z,100.00
2023-01-19T00:46:19.203Z,100.00
2023-01-19T00:48:45.522Z,100.00
2023-01-19T00:51:11.847Z,100.00
2023-01-19T00:53:38.883Z,100.00
2023-01-19T00:56:05.637Z,100.00
2023-01-19T00:58:31.967Z,100.00
2023-01-19T01:00:58.374Z,100.00
2023-01-19T01:03:24.751Z,100.00
2023-01-19T01:05:51.149Z,100.00
2023-01-19T01:08:17.508Z,100.00
2023-01-19T01:10:43.869Z,100.00
2023-01-19T01:13:19.976Z,100.00
2023-01-19T01:15:54.566Z,100.00
2023-01-19T01:18:21.641Z,100.00
2023-01-19T01:20:48.024Z,100.00
2023-01-19T01:23:14.703Z,100.00
2023-01-19T01:25:41.409Z,100.00
2023-01-19T01:28:08.150Z,100.00
2023-01-19T01:30:36.156Z,100.00
2023-01-19T01:33:02.935Z,100.00
2023-01-19T01:35:29.486Z,100.00
2023-01-19T01:37:58.229Z,100.00
2023-01-19T01:40:24.619Z,100.00
2023-01-19T01:42:50.970Z,100.00
2023-01-19T01:45:36.693Z,100.00
2023-01-19T01:48:09.829Z,100.00
2023-01-19T01:50:41.490Z,100.00
2023-01-19T01:53:14.782Z,100.00
2023-01-19T01:55:46.335Z,100.00
2023-01-19T01:58:14.829Z,100.00
2023-01-19T02:00:41.930Z,100.00
2023-01-19T02:03:08.420Z,100.00
2023-01-19T02:05:34.952Z,100.00
2023-01-19T02:08:15.331Z,100.00
2023-01-19T02:10:42.929Z,100.00
2023-01-19T02:13:09.379Z,100.00
2023-01-19T02:15:35.616Z,100.00
2023-01-19T02:18:02.077Z,100.00
2023-01-19T02:20:30.255Z,100.00
2023-01-19T02:23:01.863Z,100.00
2023-01-19T02:25:28.865Z,100.00
2023-01-19T02:27:55.545Z,100.00
2023-01-19T02:30:22.003Z,100.00
2023-01-19T02:32:48.799Z,100.00
2023-01-19T02:35:15.820Z,100.00
2023-01-19T02:37:44.210Z,100.00
2023-01-19T02:40:13.915Z,100.00
2023-01-19T02:42:49.884Z,100.00
2023-01-19T02:45:19.886Z,100.00
2023-01-19T02:47:48.704Z,100.00
2023-01-19T02:50:36.090Z,100.00
2023-01-19T02:53:34.805Z,100.00
2023-01-19T02:56:26.577Z,100.00
2023-01-19T02:59:31.544Z,100.00
2023-01-19T03:02:24.192Z,100.00
2023-01-19T03:05:19.504Z,100.00
2023-01-19T03:08:09.378Z,100.00
2023-01-19T03:10:38.435Z,100.00
2023-01-19T03:13:13.179Z,100.00
2023-01-19T03:15:48.976Z,100.00
2023-01-19T03:18:20.167Z,100.00
2023-01-19T03:20:50.107Z,100.00
2023-01-19T03:23:18.398Z,100.00
2023-01-19T03:25:48.135Z,100.00
2023-01-19T03:28:19.392Z,100.00
2023-01-19T03:30:50.452Z,100.00
2023-01-19T03:33:25.019Z,100.00
2023-01-19T03:35:57.191Z,100.00
2023-01-19T03:38:27.255Z,100.00
2023-01-19T03:40:58.472Z,100.00
2023-01-19T03:43:26.452Z,100.00
2023-01-19T03:45:53.617Z,100.00
2023-01-19T03:48:21.803Z,100.00
2023-01-19T03:50:48.135Z,100.00
2023-01-19T03:53:16.979Z,100.00
2023-01-19T03:55:46.427Z,100.00
2023-01-19T03:58:13.244Z,100.00
2023-01-19T04:00:40.111Z,100.00
2023-01-19T04:03:13.131Z,100.00
2023-01-19T04:05:39.733Z,100.00
2023-01-19T04:08:06.476Z,100.00
2023-01-19T04:10:32.834Z,100.00
2023-01-19T04:13:01.020Z,100.00
2023-01-19T04:15:29.057Z,100.00
2023-01-19T04:17:58.448Z,100.00
2023-01-19T04:20:25.338Z,100.00
2023-01-19T04:22:51.641Z,100.00
2023-01-19T04:25:18.065Z,100.00
2023-01-19T04:27:44.344Z,100.00
2023-01-19T04:30:11.465Z,100.00
2023-01-19T04:32:37.895Z,100.00
2023-01-19T04:35:04.862Z,100.00
2023-01-19T04:37:31.295Z,100.00
2023-01-19T04:39:57.509Z,100.00
2023-01-19T04:42:23.807Z,100.00
2023-01-19T04:44:50.162Z,100.00
2023-01-19T04:47:16.423Z,100.00
2023-01-19T04:49:42.799Z,100.00
2023-01-19T04:52:09.071Z,100.00
2023-01-19T04:54:35.501Z,100.00
2023-01-19T04:57:01.810Z,100.00
2023-01-19T04:59:28.195Z,100.00
2023-01-19T05:01:54.672Z,100.00
2023-01-19T05:04:21.107Z,100.00
2023-01-19T05:06:47.417Z,100.00
2023-01-19T05:09:13.924Z,100.00
2023-01-19T05:11:40.288Z,100.00
2023-01-19T05:14:06.900Z,100.00
2023-01-19T05:16:33.338Z,100.00
2023-01-19T05:18:59.581Z,100.00
2023-01-19T05:21:25.947Z,100.00
2023-01-19T05:23:52.234Z,100.00
2023-01-19T05:26:18.639Z,100.00
2023-01-19T05:28:44.931Z,100.00
2023-01-19T05:31:11.333Z,100.00
2023-01-19T05:33:37.719Z,100.00
2023-01-19T05:36:04.190Z,100.00
2023-01-19T05:38:35.449Z,100.00
2023-01-19T05:41:02.435Z,100.00
2023-01-19T05:43:28.808Z,100.00
2023-01-19T05:45:55.166Z,100.00
2023-01-19T05:48:21.401Z,100.00
2023-01-19T05:50:47.766Z,100.00
2023-01-19T05:53:14.059Z,100.00
2023-01-19T05:55:40.386Z,100.00
2023-01-19T05:58:06.734Z,100.00
2023-01-19T06:00:33.094Z,100.00
2023-01-19T06:02:59.774Z,100.00
2023-01-19T06:05:26.388Z,100.00
2023-01-19T06:07:52.691Z,100.00
2023-01-19T06:10:19.222Z,100.00
2023-01-19T06:12:45.542Z,100.00
2023-01-19T06:15:11.852Z,100.00
2023-01-19T06:17:38.215Z,100.00
2023-01-19T06:20:04.735Z,100.00
2023-01-19T06:22:31.058Z,100.00
2023-01-19T06:24:57.390Z,100.00
2023-01-19T06:27:23.735Z,100.00
2023-01-19T06:29:50.035Z,100.00
2023-01-19T06:32:16.479Z,100.00
2023-01-19T06:34:42.890Z,100.00
2023-01-19T06:37:10.684Z,100.00
2023-01-19T06:39:37.608Z,100.00
2023-01-19T06:42:03.967Z,100.00
2023-01-19T06:44:30.273Z,100.00
2023-01-19T06:47:15.318Z,100.00
2023-01-19T06:49:42.529Z,100.00
2023-01-19T06:52:09.676Z,100.00
2023-01-19T06:54:36.016Z,100.00
2023-01-19T06:57:03.566Z,100.00
2023-01-19T06:59:29.992Z,100.00
2023-01-19T07:01:56.541Z,100.00
2023-01-19T07:04:23.131Z,100.00
2023-01-19T07:06:50.137Z,100.00
2023-01-19T07:09:16.996Z,100.00
2023-01-19T07:11:43.477Z,100.00
2023-01-19T07:14:09.905Z,100.00
2023-01-19T07:16:36.270Z,100.00
2023-01-19T07:19:02.644Z,100.00
2023-01-19T07:21:29.388Z,100.00
2023-01-19T07:23:55.919Z,100.00
2023-01-19T07:26:22.320Z,100.00
2023-01-19T07:28:48.914Z,100.00
2023-01-19T07:31:16.021Z,100.00
2023-01-19T07:33:42.505Z,100.00
2023-01-19T07:36:09.012Z,100.00
2023-01-19T07:38:35.376Z,100.00
2023-01-19T07:41:02.234Z,100.00
2023-01-19T07:43:28.777Z,100.00
2023-01-19T07:45:59.456Z,100.00
2023-01-19T07:48:26.354Z,100.00
2023-01-19T07:50:52.893Z,100.00
2023-01-19T07:53:19.785Z,100.00
2023-01-19T07:55:46.211Z,100.00
2023-01-19T07:58:12.698Z,100.00
2023-01-19T08:00:39.292Z,100.00
2023-01-19T08:03:05.874Z,100.00
2023-01-19T08:05:33.366Z,100.00
2023-01-19T08:07:59.871Z,100.00
2023-01-19T08:10:27.147Z,100.00
2023-01-19T08:12:57.735Z,100.00
2023-01-19T08:15:25.109Z,100.00
2023-01-19T08:18:02.741Z,100.00
2023-01-19T08:20:29.617Z,100.00
2023-01-19T08:22:56.552Z,100.00
2023-01-19T08:25:22.881Z,100.00
2023-01-19T08:27:49.248Z,100.00
2023-01-19T08:30:15.724Z,100.00
2023-01-19T08:32:42.261Z,100.00
2023-01-19T08:35:08.890Z,100.00
2023-01-19T08:37:35.277Z,100.00
2023-01-19T08:40:01.876Z,100.00
2023-01-19T08:42:28.218Z,100.00
2023-01-19T08:44:58.641Z,100.00
2023-01-19T08:47:25.243Z,100.00
2023-01-19T08:49:51.730Z,100.00
2023-01-19T08:52:18.096Z,100.00
2023-01-19T08:54:44.418Z,100.00
2023-01-19T08:57:10.756Z,100.00
2023-01-19T08:59:37.189Z,100.00
2023-01-19T09:02:03.550Z,100.00
2023-01-19T09:04:30.104Z,100.00
2023-01-19T09:06:56.519Z,100.00
2023-01-19T09:09:22.779Z,100.00
2023-01-19T09:11:49.128Z,100.00
2023-01-19T09:14:15.410Z,100.00
2023-01-19T09:16:41.844Z,100.00
2023-01-19T09:19:08.162Z,100.00
2023-01-19T09:21:34.796Z,100.00
2023-01-19T09:24:01.135Z,100.00
2023-01-19T09:26:27.470Z,100.00
2023-01-19T09:28:54.064Z,100.00
2023-01-19T09:31:20.602Z,100.00
2023-01-19T09:33:47.222Z,100.00
2023-01-19T09:36:13.690Z,100.00
2023-01-19T09:38:40.290Z,100.00
2023-01-19T09:41:19.815Z,100.00
2023-01-19T09:43:54.594Z,100.00
2023-01-19T09:46:40.424Z,100.00
2023-01-19T09:49:25.531Z,100.00
2023-01-19T09:51:52.418Z,100.00
2023-01-19T09:54:29.950Z,100.00
2023-01-19T09:56:56.417Z,100.00
2023-01-19T09:59:30.209Z,100.00
2023-01-19T10:02:18.295Z,100.00
2023-01-19T10:04:50.392Z,100.00
2023-01-19T10:07:24.323Z,100.00
2023-01-19T10:10:04.751Z,100.00
2023-01-19T10:12:57.395Z,100.00
2023-01-19T10:15:37.880Z,100.00
2023-01-19T10:18:13.652Z,100.00
2023-01-19T10:21:08.197Z,100.00
2023-01-19T10:23:46.056Z,100.00
2023-01-19T10:26:17.489Z,100.00
2023-01-19T10:28:46.919Z,100.00
2023-01-19T10:31:14.248Z,100.00
2023-01-19T10:33:40.963Z,100.00
2023-01-19T10:36:17.623Z,100.00
2023-01-19T10:38:44.561Z,99.98
2023-01-19T10:41:28.387Z,99.16
2023-01-19T10:44:00.221Z,99.75
2023-01-19T10:46:33.439Z,96.99
2023-01-19T10:49:00.089Z,96.70
2023-01-19T10:51:26.739Z,96.61
2023-01-19T10:54:13.262Z,95.81
2023-01-19T10:56:39.927Z,94.38
2023-01-19T10:59:07.186Z,95.69
2023-01-19T11:01:34.104Z,95.17
2023-01-19T11:04:00.546Z,94.25
2023-01-19T11:06:30.279Z,94.49
2023-01-19T11:09:32.181Z,94.11
2023-01-19T11:11:58.564Z,94.19
2023-01-19T11:14:26.292Z,90.46
2023-01-19T11:16:56.162Z,90.96
2023-01-19T11:19:28.850Z,91.45
2023-01-19T11:22:16.986Z,89.45
2023-01-19T11:24:43.976Z,88.58
2023-01-19T11:27:10.476Z,88.99
2023-01-19T11:29:37.132Z,87.80
2023-01-19T11:32:18.333Z,86.75
2023-01-19T11:34:44.708Z,87.11
2023-01-19T11:37:19.948Z,86.66
2023-01-19T11:39:52.520Z,87.72
2023-01-19T11:42:20.353Z,88.07
2023-01-19T11:45:03.218Z,85.98
2023-01-19T11:47:41.448Z,85.36
2023-01-19T11:50:10.754Z,85.46
2023-01-19T11:52:51.311Z,85.68
2023-01-19T11:55:36.181Z,86.05
2023-01-19T11:58:04.387Z,83.69
2023-01-19T12:00:38.352Z,84.38
2023-01-19T12:03:15.389Z,80.98
2023-01-19T12:05:48.403Z,80.64
2023-01-19T12:08:39.376Z,80.76
2023-01-19T12:11:08.925Z,79.71
2023-01-19T12:13:36.201Z,80.97
2023-01-19T12:16:20.639Z,80.10
2023-01-19T12:18:54.367Z,81.61
2023-01-19T12:21:21.710Z,78.58
2023-01-19T12:24:15.482Z,79.01
2023-01-19T12:26:55.806Z,76.35
2023-01-19T12:29:25.877Z,79.30
2023-01-19T12:32:14.333Z,76.52
2023-01-19T12:34:48.595Z,78.03
2023-01-19T12:37:27.264Z,75.39
2023-01-19T12:39:56.879Z,76.31
2023-01-19T12:42:23.938Z,76.10
2023-01-19T12:45:05.338Z,76.91
2023-01-19T12:47:32.262Z,75.59
2023-01-19T12:50:05.697Z,75.07
2023-01-19T12:52:54.716Z,75.88
2023-01-19T12:55:27.055Z,75.54
2023-01-19T12:57:59.539Z,75.69
2023-01-19T13:00:25.808Z,76.71
2023-01-19T13:02:52.067Z,75.15
2023-01-19T13:05:24.517Z,76.98
2023-01-19T13:08:03.177Z,76.02
2023-01-19T13:11:00.706Z,75.27
2023-01-19T13:13:39.431Z,74.37
2023-01-19T13:16:18.111Z,73.93
2023-01-19T13:19:07.715Z,75.67
2023-01-19T13:21:36.795Z,75.14
2023-01-19T13:24:13.791Z,75.77
2023-01-19T13:26:42.824Z,75.45
2023-01-19T13:29:23.002Z,75.23
2023-01-19T13:31:49.792Z,75.28
2023-01-19T13:34:22.444Z,75.95
2023-01-19T13:36:54.418Z,74.76
2023-01-19T13:39:30.054Z,74.99
2023-01-19T13:42:00.859Z,75.97
2023-01-19T13:44:41.489Z,73.60
2023-01-19T13:47:15.459Z,73.65
2023-01-19T13:49:45.242Z,75.55
2023-01-19T13:52:29.688Z,75.51
2023-01-19T13:54:59.248Z,75.73
2023-01-19T13:57:32.267Z,76.46
2023-01-19T14:00:16.775Z,77.42
2023-01-19T14:02:54.056Z,75.42
2023-01-19T14:05:34.765Z,76.21
2023-01-19T14:08:02.267Z,75.39
2023-01-19T14:10:28.617Z,76.21
2023-01-19T14:13:22.226Z,75.01
2023-01-19T14:15:51.586Z,76.60
2023-01-19T14:18:18.135Z,77.55
2023-01-19T14:21:02.537Z,77.23
2023-01-19T14:23:50.164Z,78.90
2023-01-19T14:26:49.193Z,78.74
2023-01-19T14:29:32.773Z,79.25
2023-01-19T14:32:25.791Z,80.33
2023-01-19T14:34:59.095Z,80.63
2023-01-19T14:37:33.680Z,78.18
2023-01-19T14:40:09.270Z,79.39
2023-01-19T14:42:38.563Z,78.11
2023-01-19T14:45:16.194Z,78.56
2023-01-19T14:47:45.281Z,77.49
2023-01-19T14:50:17.789Z,76.02
2023-01-19T14:52:51.525Z,76.79
2023-01-19T14:55:33.818Z,74.82
2023-01-19T14:58:00.237Z,76.92
2023-01-19T15:00:27.153Z,78.77
2023-01-19T15:02:53.533Z,78.28
2023-01-19T15:05:20.304Z,77.64
2023-01-19T15:07:47.193Z,77.94
2023-01-19T15:10:22.321Z,76.83
2023-01-19T15:12:50.380Z,75.62
2023-01-19T15:15:20.796Z,77.33
2023-01-19T15:17:47.150Z,75.80
2023-01-19T15:20:15.975Z,76.60
2023-01-19T15:22:42.503Z,77.03
2023-01-19T15:25:12.501Z,77.40
2023-01-19T15:27:38.967Z,77.27
2023-01-19T15:30:14.371Z,77.28
2023-01-19T15:32:40.724Z,76.94
2023-01-19T15:35:12.783Z,76.33
2023-01-19T15:37:39.212Z,77.39
2023-01-19T15:40:06.467Z,77.97
2023-01-19T15:42:32.902Z,77.80
2023-01-19T15:44:59.269Z,78.11
2023-01-19T15:47:25.689Z,79.15
2023-01-19T15:49:52.052Z,77.64
2023-01-19T15:52:18.536Z,78.65
2023-01-19T15:54:45.065Z,79.18
2023-01-19T15:57:11.378Z,79.84
2023-01-19T15:59:37.704Z,79.66
2023-01-19T16:02:04.552Z,79.06
2023-01-19T16:04:31.012Z,79.07
2023-01-19T16:06:57.283Z,80.19
2023-01-19T16:09:23.745Z,80.12
2023-01-19T16:11:50.084Z,80.62
2023-01-19T16:14:17.564Z,80.72
2023-01-19T16:16:44.413Z,80.68
2023-01-19T16:19:14.252Z,81.06
2023-01-19T16:21:40.611Z,82.21
2023-01-19T16:24:07.039Z,82.70
2023-01-19T16:26:35.045Z,82.59
2023-01-19T16:29:06.870Z,83.23
2023-01-19T16:31:33.302Z,83.37
2023-01-19T16:33:59.562Z,83.66
2023-01-19T16:36:31.303Z,83.77
2023-01-19T16:39:03.779Z,83.87
2023-01-19T16:41:30.123Z,83.88
2023-01-19T16:43:58.109Z,84.18
2023-01-19T16:46:27.195Z,84.43
2023-01-19T16:48:58.311Z,84.43
2023-01-19T16:51:24.931Z,84.77
2023-01-19T16:53:52.484Z,85.02
2023-01-19T16:56:19.349Z,85.29
2023-01-19T16:58:45.956Z,85.81
2023-01-19T17:01:15.038Z,85.53
2023-01-19T17:03:42.507Z,86.38
2023-01-19T17:06:11.419Z,86.30
2023-01-19T17:08:38.528Z,85.74
2023-01-19T17:11:10.281Z,85.69
2023-01-19T17:13:37.007Z,85.47
2023-01-19T17:16:05.168Z,85.93
2023-01-19T17:18:33.674Z,86.40
2023-01-19T17:21:04.461Z,85.60
2023-01-19T17:23:31.189Z,86.22
2023-01-19T17:25:58.682Z,86.58
2023-01-19T17:28:25.868Z,87.24
2023-01-19T17:30:52.783Z,87.84
2023-01-19T17:33:20.991Z,87.60
2023-01-19T17:35:47.413Z,88.24
2023-01-19T17:38:14.247Z,88.66
2023-01-19T17:40:40.679Z,88.91
2023-01-19T17:43:07.063Z,89.41
2023-01-19T17:45:36.996Z,90.01
2023-01-19T17:48:04.902Z,90.20
2023-01-19T17:50:34.067Z,89.90
2023-01-19T17:53:00.855Z,90.03
2023-01-19T17:55:27.344Z,90.10
2023-01-19T17:57:53.643Z,90.46
2023-01-19T18:00:20.281Z,90.49
2023-01-19T18:02:49.844Z,89.95
2023-01-19T18:05:16.666Z,90.13
2023-01-19T18:07:43.126Z,89.98
2023-01-19T18:10:09.998Z,89.67
2023-01-19T18:12:36.546Z,89.96
2023-01-19T18:15:04.285Z,90.10
2023-01-19T18:17:31.054Z,90.14
2023-01-19T18:19:58.006Z,90.10
2023-01-19T18:22:24.684Z,90.86
2023-01-19T18:24:51.094Z,90.88
2023-01-19T18:27:17.424Z,90.97
2023-01-19T18:29:44.290Z,91.20
2023-01-19T18:32:10.770Z,90.93
2023-01-19T18:34:37.383Z,91.13
2023-01-19T18:37:03.999Z,91.63
2023-01-19T18:39:30.392Z,92.54
2023-01-19T18:41:57.208Z,93.42
2023-01-19T18:44:23.529Z,94.05
2023-01-19T18:46:49.929Z,94.51
2023-01-19T18:49:16.253Z,95.41
2023-01-19T18:51:42.638Z,95.84
2023-01-19T18:54:10.701Z,96.38
2023-01-19T18:56:37.058Z,97.58
2023-01-19T18:59:03.649Z,98.48
2023-01-19T19:01:33.131Z,99.77
2023-01-19T19:04:00.330Z,100.00
2023-01-19T19:06:27.253Z,100.00
2023-01-19T19:08:57.996Z,100.00
2023-01-19T19:11:25.324Z,100.00
2023-01-19T19:14:02.088Z,100.00
2023-01-19T19:16:29.272Z,100.00
2023-01-19T19:18:55.696Z,100.00
2023-01-19T19:21:22.872Z,100.00
2023-01-19T19:23:51.145Z,100.00
2023-01-19T19:26:17.666Z,100.00
2023-01-19T19:28:43.909Z,100.00
2023-01-19T19:31:13.206Z,100.00
2023-01-19T19:33:40.213Z,100.00
2023-01-19T19:36:08.551Z,100.00
2023-01-19T19:38:36.932Z,100.00
2023-01-19T19:41:13.571Z,100.00
2023-01-19T19:43:40.215Z,100.00
2023-01-19T19:46:09.132Z,100.00
2023-01-19T19:48:38.981Z,100.00
2023-01-19T19:51:18.802Z,100.00
2023-01-19T19:53:46.321Z,100.00
2023-01-19T19:56:13.452Z,100.00
2023-01-19T19:58:40.961Z,100.00
2023-01-19T20:01:12.528Z,100.00
2023-01-19T20:03:39.384Z,100.00
2023-01-19T20:06:07.434Z,100.00
2023-01-19T20:08:34.412Z,100.00
2023-01-19T20:11:06.436Z,100.00
2023-01-19T20:13:34.474Z,100.00
2023-01-19T20:16:05.549Z,100.00
2023-01-19T20:18:32.817Z,100.00
2023-01-19T20:21:00.051Z,100.00
2023-01-19T20:23:26.660Z,100.00
2023-01-19T20:25:53.022Z,100.00
2023-01-19T20:28:19.693Z,100.00
2023-01-19T20:30:46.170Z,100.00
2023-01-19T20:33:12.661Z,100.00
2023-01-19T20:35:38.940Z,100.00
2023-01-19T20:38:05.264Z,100.00
2023-01-19T20:40:31.724Z,100.00
2023-01-19T20:42:58.021Z,100.00
2023-01-19T20:45:24.543Z,100.00
2023-01-19T20:47:53.108Z,100.00
2023-01-19T20:50:19.484Z,100.00
2023-01-19T20:52:45.834Z,100.00
2023-01-19T20:55:12.561Z,100.00
2023-01-19T20:57:39.015Z,100.00
2023-01-19T21:00:05.945Z,100.00
2023-01-19T21:02:32.335Z,100.00
2023-01-19T21:04:58.731Z,100.00
2023-01-19T21:07:25.069Z,100.00
2023-01-19T21:09:51.467Z,100.00
2023-01-19T21:12:17.903Z,100.00
2023-01-19T21:14:44.321Z,100.00
2023-01-19T21:17:10.662Z,100.00
2023-01-19T21:19:37.021Z,100.00
2023-01-19T21:22:03.416Z,100.00
2023-01-19T21:24:29.693Z,100.00
2023-01-19T21:26:56.031Z,100.00
2023-01-19T21:29:22.531Z,100.00
2023-01-19T21:31:48.863Z,100.00
2023-01-19T21:34:15.199Z,100.00
2023-01-19T21:36:41.496Z,100.00
2023-01-19T21:39:07.944Z,100.00
2023-01-19T21:41:34.329Z,100.00
2023-01-19T21:44:00.996Z,100.00
2023-01-19T21:46:28.347Z,100.00
2023-01-19T21:48:59.894Z,100.00
2023-01-19T21:51:27.216Z,100.00
2023-01-19T21:53:53.639Z,100.00
2023-01-19T21:56:20.995Z,100.00
2023-01-19T21:58:47.344Z,100.00
2023-01-19T22:01:14.084Z,100.00
2023-01-19T22:03:41.871Z,100.00
2023-01-19T22:06:11.071Z,100.00
2023-01-19T22:08:37.868Z,100.00
2023-01-19T22:11:06.023Z,100.00
2023-01-19T22:13:33.415Z,100.00
2023-01-19T22:16:05.409Z,100.00
2023-01-19T22:18:31.850Z,100.00
2023-01-19T22:21:06.686Z,100.00
2023-01-19T22:23:33.045Z,100.00
2023-01-19T22:26:00.135Z,100.00
2023-01-19T22:28:26.518Z,100.00
2023-01-19T22:30:52.951Z,100.00
2023-01-19T22:33:19.431Z,100.00
2023-01-19T22:35:45.849Z,100.00
2023-01-19T22:38:12.134Z,100.00
2023-01-19T22:40:38.438Z,100.00
2023-01-19T22:43:04.810Z,100.00
2023-01-19T22:45:31.277Z,100.00
2023-01-19T22:47:57.559Z,100.00
2023-01-19T22:50:23.915Z,100.00
2023-01-19T22:52:55.235Z,100.00
2023-01-19T22:55:21.591Z,100.00
2023-01-19T22:57:47.937Z,100.00
2023-01-19T23:00:14.805Z,100.00
2023-01-19T23:02:41.150Z,100.00
2023-01-19T23:05:07.483Z,100.00
2023-01-19T23:07:33.802Z,100.00
2023-01-19T23:10:00.224Z,100.00
2023-01-19T23:12:26.515Z,100.00
2023-01-19T23:14:52.896Z,100.00
2023-01-19T23:17:19.265Z,100.00
2023-01-19T23:19:45.631Z,100.00
2023-01-19T23:22:11.938Z,100.00
2023-01-19T23:24:38.422Z,100.00
2023-01-19T23:27:04.702Z,100.00
2023-01-19T23:29:31.063Z,100.00
2023-01-19T23:31:57.412Z,100.00
2023-01-19T23:34:23.772Z,100.00
2023-01-19T23:36:50.141Z,100.00
2023-01-19T23:39:19.864Z,100.00
2023-01-19T23:41:46.629Z,100.00
2023-01-19T23:44:13.028Z,100.00
2023-01-19T23:46:39.385Z,100.00
2023-01-19T23:49:05.917Z,100.00
2023-01-19T23:51:33.044Z,100.00
2023-01-19T23:54:00.428Z,100.00
2023-01-19T23:56:32.846Z,100.00
2023-01-19T23:59:07.736Z,100.00
